sensor_id;sensor_type;location;lat;lon;timestamp;temperature;humidity
63966;DHT22;50151;52.030;5.350;2023-04-03T10:14:35;8.00;36.80
63966;DHT22;50151;52.030;5.350;2023-04-03T10:19:52;8.20;34.30
63966;DHT22;50151;52.030;5.350;2023-04-03T10:25:17;8.40;35.10
63966;DHT22;50151;52.030;5.350;2023-04-03T10:28:05;8.40;34.80
63966;DHT22;50151;52.030;5.350;2023-04-03T10:30:46;8.30;33.60
63966;DHT22;50151;52.030;5.350;2023-04-03T10:42:08;8.50;32.30
63966;DHT22;50151;52.030;5.350;2023-04-03T10:45:01;8.60;32.50
63966;DHT22;50151;52.030;5.350;2023-04-03T10:47:43;8.60;32.00
63966;DHT22;50151;52.030;5.350;2023-04-03T10:50:36;8.80;32.10
63966;DHT22;50151;52.030;5.350;2023-04-03T10:53:24;8.90;32.50
63966;DHT22;50151;52.030;5.350;2023-04-03T10:58:43;9.20;33.80
63966;DHT22;50151;52.030;5.350;2023-04-03T11:01:14;9.30;33.70
63966;DHT22;50151;52.030;5.350;2023-04-03T11:03:46;9.50;34.40
63966;DHT22;50151;52.030;5.350;2023-04-03T11:06:15;9.40;33.60
63966;DHT22;50151;52.030;5.350;2023-04-03T11:11:26;9.60;34.00
63966;DHT22;50151;52.030;5.350;2023-04-03T11:14:20;9.60;34.70
63966;DHT22;50151;52.030;5.350;2023-04-03T11:16:51;9.60;35.70
63966;DHT22;50151;52.030;5.350;2023-04-03T11:19:22;9.70;35.60
63966;DHT22;50151;52.030;5.350;2023-04-03T11:22:00;9.90;35.60
63966;DHT22;50151;52.030;5.350;2023-04-03T11:24:30;9.90;36.00
63966;DHT22;50151;52.030;5.350;2023-04-03T11:26:59;9.90;35.90
63966;DHT22;50151;52.030;5.350;2023-04-03T11:29:36;10.20;37.30
63966;DHT22;50151;52.030;5.350;2023-04-03T11:32:15;10.10;36.90
63966;DHT22;50151;52.030;5.350;2023-04-03T11:34:49;10.30;37.50
63966;DHT22;50151;52.030;5.350;2023-04-03T11:37:25;10.30;36.40
63966;DHT22;50151;52.030;5.350;2023-04-03T11:39:56;10.40;36.40
63966;DHT22;50151;52.030;5.350;2023-04-03T11:42:34;10.20;36.70
63966;DHT22;50151;52.030;5.350;2023-04-03T11:47:52;10.30;36.50
63966;DHT22;50151;52.030;5.350;2023-04-03T12:00:55;10.80;37.30
63966;DHT22;50151;52.030;5.350;2023-04-03T12:05:55;10.70;35.50
63966;DHT22;50151;52.030;5.350;2023-04-03T12:08:28;10.90;36.60
63966;DHT22;50151;52.030;5.350;2023-04-03T12:18:55;10.90;35.40
63966;DHT22;50151;52.030;5.350;2023-04-03T12:36:30;11.80;35.40
63966;DHT22;50151;52.030;5.350;2023-04-03T12:38:46;11.70;34.30
63966;DHT22;50151;52.030;5.350;2023-04-03T12:41:38;11.90;34.40
63966;DHT22;50151;52.030;5.350;2023-04-03T12:46:47;12.40;34.90
63966;DHT22;50151;52.030;5.350;2023-04-03T12:51:49;12.40;34.20
63966;DHT22;50151;52.030;5.350;2023-04-03T12:54:27;12.40;34.00
63966;DHT22;50151;52.030;5.350;2023-04-03T12:57:11;12.50;33.40
63966;DHT22;50151;52.030;5.350;2023-04-03T12:59:38;12.20;33.20
63966;DHT22;50151;52.030;5.350;2023-04-03T13:02:23;12.70;34.10
63966;DHT22;50151;52.030;5.350;2023-04-03T13:04:55;12.80;33.20
63966;DHT22;50151;52.030;5.350;2023-04-03T13:07:28;12.80;33.70
63966;DHT22;50151;52.030;5.350;2023-04-03T13:12:35;13.00;32.00
63966;DHT22;50151;52.030;5.350;2023-04-03T13:15:13;13.40;33.90
63966;DHT22;50151;52.030;5.350;2023-04-03T13:17:42;13.80;32.40
63966;DHT22;50151;52.030;5.350;2023-04-03T13:20:20;13.80;33.10
63966;DHT22;50151;52.030;5.350;2023-04-03T13:23:05;13.70;32.40
63966;DHT22;50151;52.030;5.350;2023-04-03T13:25:37;13.30;32.10
63966;DHT22;50151;52.030;5.350;2023-04-03T13:28:07;13.90;32.00
63966;DHT22;50151;52.030;5.350;2023-04-03T13:30:40;14.30;32.50
63966;DHT22;50151;52.030;5.350;2023-04-03T13:33:26;13.90;31.00
63966;DHT22;50151;52.030;5.350;2023-04-03T13:36:06;14.20;31.10
63966;DHT22;50151;52.030;5.350;2023-04-03T13:38:34;14.70;32.60
63966;DHT22;50151;52.030;5.350;2023-04-03T13:41:23;14.80;31.40
63966;DHT22;50151;52.030;5.350;2023-04-03T13:43:51;14.60;32.30
63966;DHT22;50151;52.030;5.350;2023-04-03T13:46:27;14.80;31.90
63966;DHT22;50151;52.030;5.350;2023-04-03T13:48:56;14.20;32.00
63966;DHT22;50151;52.030;5.350;2023-04-03T13:51:27;14.50;32.50
63966;DHT22;50151;52.030;5.350;2023-04-03T13:53:56;14.40;32.30
63966;DHT22;50151;52.030;5.350;2023-04-03T13:56:33;14.60;32.10
63966;DHT22;50151;52.030;5.350;2023-04-03T13:59:23;15.40;32.30
63966;DHT22;50151;52.030;5.350;2023-04-03T14:04:33;15.60;32.10
63966;DHT22;50151;52.030;5.350;2023-04-03T14:07:12;15.60;31.80
63966;DHT22;50151;52.030;5.350;2023-04-03T14:09:38;15.60;30.00
63966;DHT22;50151;52.030;5.350;2023-04-03T14:12:16;15.80;31.00
63966;DHT22;50151;52.030;5.350;2023-04-03T14:14:56;15.60;30.10
63966;DHT22;50151;52.030;5.350;2023-04-03T14:17:25;15.60;30.80
63966;DHT22;50151;52.030;5.350;2023-04-03T14:19:53;16.00;31.30
63966;DHT22;50151;52.030;5.350;2023-04-03T14:22:28;15.60;31.30
63966;DHT22;50151;52.030;5.350;2023-04-03T14:24:55;16.50;30.30
63966;DHT22;50151;52.030;5.350;2023-04-03T14:27:34;16.70;30.80
63966;DHT22;50151;52.030;5.350;2023-04-03T14:30:03;16.30;29.80
63966;DHT22;50151;52.030;5.350;2023-04-03T14:32:31;16.40;30.00
63966;DHT22;50151;52.030;5.350;2023-04-03T14:34:58;15.20;30.80
63966;DHT22;50151;52.030;5.350;2023-04-03T14:37:28;16.00;30.90
63966;DHT22;50151;52.030;5.350;2023-04-03T14:39:58;16.10;30.70
63966;DHT22;50151;52.030;5.350;2023-04-03T14:42:29;16.80;30.80
63966;DHT22;50151;52.030;5.350;2023-04-03T14:44:58;16.60;30.50
63966;DHT22;50151;52.030;5.350;2023-04-03T14:47:28;17.20;30.60
63966;DHT22;50151;52.030;5.350;2023-04-03T14:49:59;16.80;30.80
63966;DHT22;50151;52.030;5.350;2023-04-03T14:52:32;16.80;30.30
63966;DHT22;50151;52.030;5.350;2023-04-03T14:55:00;16.80;30.20
63966;DHT22;50151;52.030;5.350;2023-04-03T14:57:28;16.90;30.60
63966;DHT22;50151;52.030;5.350;2023-04-03T14:59:56;17.10;30.10
63966;DHT22;50151;52.030;5.350;2023-04-03T15:02:30;16.10;30.80
63966;DHT22;50151;52.030;5.350;2023-04-03T15:04:59;16.50;31.00
63966;DHT22;50151;52.030;5.350;2023-04-03T15:07:28;16.80;30.90
63966;DHT22;50151;52.030;5.350;2023-04-03T15:09:57;16.80;30.20
63966;DHT22;50151;52.030;5.350;2023-04-03T15:12:24;15.50;30.20
63966;DHT22;50151;52.030;5.350;2023-04-03T15:14:51;16.10;31.30
63966;DHT22;50151;52.030;5.350;2023-04-03T15:17:28;15.80;30.80
63966;DHT22;50151;52.030;5.350;2023-04-03T15:19:55;16.00;30.50
63966;DHT22;50151;52.030;5.350;2023-04-03T15:22:22;16.20;30.30
63966;DHT22;50151;52.030;5.350;2023-04-03T15:24:49;16.00;31.20
63966;DHT22;50151;52.030;5.350;2023-04-03T15:27:15;15.80;30.50
63966;DHT22;50151;52.030;5.350;2023-04-03T15:29:43;15.70;31.50
63966;DHT22;50151;52.030;5.350;2023-04-03T15:32:11;16.00;31.70
63966;DHT22;50151;52.030;5.350;2023-04-03T15:34:39;15.60;31.70
63966;DHT22;50151;52.030;5.350;2023-04-03T15:37:06;15.50;31.70
63966;DHT22;50151;52.030;5.350;2023-04-03T15:39:33;15.20;31.90
63966;DHT22;50151;52.030;5.350;2023-04-03T15:41:59;15.20;32.70
63966;DHT22;50151;52.030;5.350;2023-04-03T15:44:33;14.80;32.30
63966;DHT22;50151;52.030;5.350;2023-04-03T15:47:01;14.80;33.70
63966;DHT22;50151;52.030;5.350;2023-04-03T15:49:28;14.80;33.40
63966;DHT22;50151;52.030;5.350;2023-04-03T15:51:55;14.40;33.40
63966;DHT22;50151;52.030;5.350;2023-04-03T15:54:22;14.80;33.20
63966;DHT22;50151;52.030;5.350;2023-04-03T15:56:50;14.70;34.00
63966;DHT22;50151;52.030;5.350;2023-04-03T15:59:17;15.40;34.00
63966;DHT22;50151;52.030;5.350;2023-04-03T16:01:44;15.80;35.20
63966;DHT22;50151;52.030;5.350;2023-04-03T16:04:11;14.60;34.10
63966;DHT22;50151;52.030;5.350;2023-04-03T16:06:41;14.70;34.70
63966;DHT22;50151;52.030;5.350;2023-04-03T16:09:08;15.00;34.90
63966;DHT22;50151;52.030;5.350;2023-04-03T16:11:36;14.60;34.80
63966;DHT22;50151;52.030;5.350;2023-04-03T16:14:07;14.50;35.40
63966;DHT22;50151;52.030;5.350;2023-04-03T16:16:34;14.80;34.90
63966;DHT22;50151;52.030;5.350;2023-04-03T16:19:02;14.00;35.50
63966;DHT22;50151;52.030;5.350;2023-04-03T16:21:29;14.60;35.40
63966;DHT22;50151;52.030;5.350;2023-04-03T16:23:57;14.90;35.10
63966;DHT22;50151;52.030;5.350;2023-04-03T16:26:24;14.40;34.70
63966;DHT22;50151;52.030;5.350;2023-04-03T16:28:52;13.80;35.20
63966;DHT22;50151;52.030;5.350;2023-04-03T16:31:20;13.40;35.90
63966;DHT22;50151;52.030;5.350;2023-04-03T16:33:47;13.40;36.30
63966;DHT22;50151;52.030;5.350;2023-04-03T16:36:14;13.10;36.30
63966;DHT22;50151;52.030;5.350;2023-04-03T16:38:41;13.10;36.90
63966;DHT22;50151;52.030;5.350;2023-04-03T16:41:07;12.60;37.40
63966;DHT22;50151;52.030;5.350;2023-04-03T16:43:34;12.40;38.30
63966;DHT22;50151;52.030;5.350;2023-04-03T16:46:02;12.40;38.20
63966;DHT22;50151;52.030;5.350;2023-04-03T16:48:29;12.50;38.70
63966;DHT22;50151;52.030;5.350;2023-04-03T16:50:56;12.70;38.80
63966;DHT22;50151;52.030;5.350;2023-04-03T16:53:24;12.90;38.90
63966;DHT22;50151;52.030;5.350;2023-04-03T16:55:51;12.40;38.80
63966;DHT22;50151;52.030;5.350;2023-04-03T16:58:18;12.30;39.50
63966;DHT22;50151;52.030;5.350;2023-04-03T17:00:47;12.30;39.40
63966;DHT22;50151;52.030;5.350;2023-04-03T17:03:14;12.50;39.60
63966;DHT22;50151;52.030;5.350;2023-04-03T17:05:41;12.80;39.10
63966;DHT22;50151;52.030;5.350;2023-04-03T17:08:10;12.70;38.60
63966;DHT22;50151;52.030;5.350;2023-04-03T17:10:37;12.90;39.30
63966;DHT22;50151;52.030;5.350;2023-04-03T17:13:03;12.50;39.50
63966;DHT22;50151;52.030;5.350;2023-04-03T17:15:30;11.70;39.70
63966;DHT22;50151;52.030;5.350;2023-04-03T17:17:57;11.90;41.20
63966;DHT22;50151;52.030;5.350;2023-04-03T17:20:24;11.60;40.90
63966;DHT22;50151;52.030;5.350;2023-04-03T17:22:52;11.50;41.70
63966;DHT22;50151;52.030;5.350;2023-04-03T17:25:19;11.50;41.50
63966;DHT22;50151;52.030;5.350;2023-04-03T17:27:46;11.40;42.10
63966;DHT22;50151;52.030;5.350;2023-04-03T17:30:12;11.50;41.70
63966;DHT22;50151;52.030;5.350;2023-04-03T17:32:39;11.00;42.40
63966;DHT22;50151;52.030;5.350;2023-04-03T17:35:06;11.00;42.20
63966;DHT22;50151;52.030;5.350;2023-04-03T17:37:36;10.90;42.60
63966;DHT22;50151;52.030;5.350;2023-04-03T17:40:03;10.90;42.40
63966;DHT22;50151;52.030;5.350;2023-04-03T17:42:30;10.70;43.80
63966;DHT22;50151;52.030;5.350;2023-04-03T17:44:58;10.60;43.30
63966;DHT22;50151;52.030;5.350;2023-04-03T17:47:26;10.70;43.50
63966;DHT22;50151;52.030;5.350;2023-04-03T17:49:53;10.60;42.80
63966;DHT22;50151;52.030;5.350;2023-04-03T17:52:21;10.50;43.80
63966;DHT22;50151;52.030;5.350;2023-04-03T17:54:50;10.50;43.90
63966;DHT22;50151;52.030;5.350;2023-04-03T17:57:17;10.40;44.60
63966;DHT22;50151;52.030;5.350;2023-04-03T17:59:45;10.40;44.80
63966;DHT22;50151;52.030;5.350;2023-04-03T18:02:11;10.30;45.90
63966;DHT22;50151;52.030;5.350;2023-04-03T18:04:38;10.10;44.70
63966;DHT22;50151;52.030;5.350;2023-04-03T18:07:08;10.00;44.90
63966;DHT22;50151;52.030;5.350;2023-04-03T18:09:36;9.90;45.70
63966;DHT22;50151;52.030;5.350;2023-04-03T18:12:08;9.90;45.40
63966;DHT22;50151;52.030;5.350;2023-04-03T18:14:36;9.80;45.90
63966;DHT22;50151;52.030;5.350;2023-04-03T18:17:04;9.90;46.10
63966;DHT22;50151;52.030;5.350;2023-04-03T18:19:31;9.70;46.00
63966;DHT22;50151;52.030;5.350;2023-04-03T18:22:10;9.60;46.40
63966;DHT22;50151;52.030;5.350;2023-04-03T18:24:37;9.60;46.00
63966;DHT22;50151;52.030;5.350;2023-04-03T18:27:09;9.50;46.60
63966;DHT22;50151;52.030;5.350;2023-04-03T18:29:37;9.50;46.70
63966;DHT22;50151;52.030;5.350;2023-04-03T18:32:05;9.40;46.40
63966;DHT22;50151;52.030;5.350;2023-04-03T18:34:33;9.20;46.40
63966;DHT22;50151;52.030;5.350;2023-04-03T18:36:59;9.20;46.70
63966;DHT22;50151;52.030;5.350;2023-04-03T18:39:28;9.00;47.30
63966;DHT22;50151;52.030;5.350;2023-04-03T18:41:57;9.00;46.60
63966;DHT22;50151;52.030;5.350;2023-04-03T18:44:26;9.00;47.10
63966;DHT22;50151;52.030;5.350;2023-04-03T18:46:53;8.80;47.10
63966;DHT22;50151;52.030;5.350;2023-04-03T18:49:22;8.80;47.50
63966;DHT22;50151;52.030;5.350;2023-04-03T18:51:50;8.70;48.00
63966;DHT22;50151;52.030;5.350;2023-04-03T18:54:16;8.70;47.30
63966;DHT22;50151;52.030;5.350;2023-04-03T18:56:45;8.80;47.90
63966;DHT22;50151;52.030;5.350;2023-04-03T18:59:13;8.60;47.80
63966;DHT22;50151;52.030;5.350;2023-04-03T19:01:42;8.50;48.20
63966;DHT22;50151;52.030;5.350;2023-04-03T19:04:09;8.50;48.20
63966;DHT22;50151;52.030;5.350;2023-04-03T19:06:36;8.50;48.90
63966;DHT22;50151;52.030;5.350;2023-04-03T19:09:04;8.30;48.80
63966;DHT22;50151;52.030;5.350;2023-04-03T19:11:34;8.20;49.40
63966;DHT22;50151;52.030;5.350;2023-04-03T19:14:02;8.20;49.50
63966;DHT22;50151;52.030;5.350;2023-04-03T19:16:43;8.20;49.90
63966;DHT22;50151;52.030;5.350;2023-04-03T19:19:12;8.20;50.20
63966;DHT22;50151;52.030;5.350;2023-04-03T19:21:39;8.20;50.30
63966;DHT22;50151;52.030;5.350;2023-04-03T19:24:11;8.20;51.00
63966;DHT22;50151;52.030;5.350;2023-04-03T19:26:40;8.10;51.10
63966;DHT22;50151;52.030;5.350;2023-04-03T19:29:07;8.20;51.20
63966;DHT22;50151;52.030;5.350;2023-04-03T19:31:36;8.10;51.50
63966;DHT22;50151;52.030;5.350;2023-04-03T19:34:04;8.10;51.80
63966;DHT22;50151;52.030;5.350;2023-04-03T19:36:32;8.00;51.30
63966;DHT22;50151;52.030;5.350;2023-04-03T19:38:59;7.90;52.40
63966;DHT22;50151;52.030;5.350;2023-04-03T19:41:27;7.90;53.10
63966;DHT22;50151;52.030;5.350;2023-04-03T19:43:56;7.80;53.30
63966;DHT22;50151;52.030;5.350;2023-04-03T19:46:27;7.70;53.50
63966;DHT22;50151;52.030;5.350;2023-04-03T19:48:55;7.60;54.40
63966;DHT22;50151;52.030;5.350;2023-04-03T19:51:22;7.50;55.40
63966;DHT22;50151;52.030;5.350;2023-04-03T19:53:48;7.50;55.90
63966;DHT22;50151;52.030;5.350;2023-04-03T19:56:15;7.50;56.20
63966;DHT22;50151;52.030;5.350;2023-04-03T19:58:42;7.40;56.80
63966;DHT22;50151;52.030;5.350;2023-04-03T20:01:10;7.30;57.30
63966;DHT22;50151;52.030;5.350;2023-04-03T20:03:36;7.20;58.00
63966;DHT22;50151;52.030;5.350;2023-04-03T20:06:03;7.10;58.50
63966;DHT22;50151;52.030;5.350;2023-04-03T20:08:30;7.00;59.10
63966;DHT22;50151;52.030;5.350;2023-04-03T20:10:57;6.90;59.60
63966;DHT22;50151;52.030;5.350;2023-04-03T20:13:24;6.90;59.90
63966;DHT22;50151;52.030;5.350;2023-04-03T20:15:50;6.80;60.80
63966;DHT22;50151;52.030;5.350;2023-04-03T20:18:19;6.70;60.90
63966;DHT22;50151;52.030;5.350;2023-04-03T20:21:00;6.70;61.90
63966;DHT22;50151;52.030;5.350;2023-04-03T20:23:27;6.60;62.20
63966;DHT22;50151;52.030;5.350;2023-04-03T20:25:56;6.50;62.40
63966;DHT22;50151;52.030;5.350;2023-04-03T20:28:35;6.50;64.20
63966;DHT22;50151;52.030;5.350;2023-04-03T20:31:04;6.40;64.20
63966;DHT22;50151;52.030;5.350;2023-04-03T20:33:30;6.40;65.60
63966;DHT22;50151;52.030;5.350;2023-04-03T20:35:57;6.40;65.60
63966;DHT22;50151;52.030;5.350;2023-04-03T20:38:24;6.30;67.50
63966;DHT22;50151;52.030;5.350;2023-04-03T20:40:51;6.30;65.60
63966;DHT22;50151;52.030;5.350;2023-04-03T20:43:18;6.20;66.40
63966;DHT22;50151;52.030;5.350;2023-04-03T20:45:47;6.20;66.60
63966;DHT22;50151;52.030;5.350;2023-04-03T20:48:14;6.20;71.70
63966;DHT22;50151;52.030;5.350;2023-04-03T20:50:42;6.10;73.00
63966;DHT22;50151;52.030;5.350;2023-04-03T20:53:11;6.00;73.10
63966;DHT22;50151;52.030;5.350;2023-04-03T20:55:38;6.00;73.80
63966;DHT22;50151;52.030;5.350;2023-04-03T20:58:05;6.00;75.50
63966;DHT22;50151;52.030;5.350;2023-04-03T21:00:32;5.90;76.40
63966;DHT22;50151;52.030;5.350;2023-04-03T21:02:59;5.80;74.90
63966;DHT22;50151;52.030;5.350;2023-04-03T21:05:27;5.70;78.00
63966;DHT22;50151;52.030;5.350;2023-04-03T21:19:38;5.50;80.00
63966;DHT22;50151;52.030;5.350;2023-04-03T21:22:12;5.40;80.50
63966;DHT22;50151;52.030;5.350;2023-04-03T21:24:39;5.40;80.00
63966;DHT22;50151;52.030;5.350;2023-04-03T21:27:07;5.30;81.60
63966;DHT22;50151;52.030;5.350;2023-04-03T21:29:33;5.30;82.20
63966;DHT22;50151;52.030;5.350;2023-04-03T21:32:00;5.20;81.70
63966;DHT22;50151;52.030;5.350;2023-04-03T21:34:28;5.30;81.40
63966;DHT22;50151;52.030;5.350;2023-04-03T21:37:06;5.10;79.80
63966;DHT22;50151;52.030;5.350;2023-04-03T21:39:34;5.10;80.00
63966;DHT22;50151;52.030;5.350;2023-04-03T21:42:01;5.00;82.10
63966;DHT22;50151;52.030;5.350;2023-04-03T21:44:28;5.00;81.60
63966;DHT22;50151;52.030;5.350;2023-04-03T21:46:55;5.00;82.50
63966;DHT22;50151;52.030;5.350;2023-04-03T21:49:23;4.90;83.00
63966;DHT22;50151;52.030;5.350;2023-04-03T21:51:50;4.80;83.70
63966;DHT22;50151;52.030;5.350;2023-04-03T21:54:17;4.80;84.10
63966;DHT22;50151;52.030;5.350;2023-04-03T21:56:45;4.80;81.90
63966;DHT22;50151;52.030;5.350;2023-04-03T21:59:13;4.70;84.50
63966;DHT22;50151;52.030;5.350;2023-04-03T22:01:41;4.70;83.40
63966;DHT22;50151;52.030;5.350;2023-04-03T22:04:08;4.60;84.10
63966;DHT22;50151;52.030;5.350;2023-04-03T22:06:35;4.60;84.50
63966;DHT22;50151;52.030;5.350;2023-04-03T22:09:03;4.50;85.40
63966;DHT22;50151;52.030;5.350;2023-04-03T22:11:29;4.50;86.00
63966;DHT22;50151;52.030;5.350;2023-04-03T22:13:56;4.40;86.30
63966;DHT22;50151;52.030;5.350;2023-04-03T22:16:23;4.40;86.50
63966;DHT22;50151;52.030;5.350;2023-04-03T22:18:51;4.40;87.60
63966;DHT22;50151;52.030;5.350;2023-04-03T22:21:18;4.30;87.00
63966;DHT22;50151;52.030;5.350;2023-04-03T22:23:46;4.30;88.30
63966;DHT22;50151;52.030;5.350;2023-04-03T22:26:13;4.30;87.20
63966;DHT22;50151;52.030;5.350;2023-04-03T22:28:44;4.30;87.70
63966;DHT22;50151;52.030;5.350;2023-04-03T22:31:13;4.20;86.90
63966;DHT22;50151;52.030;5.350;2023-04-03T22:33:41;4.20;87.70
63966;DHT22;50151;52.030;5.350;2023-04-03T22:36:09;4.10;87.60
63966;DHT22;50151;52.030;5.350;2023-04-03T22:38:37;4.10;88.80
63966;DHT22;50151;52.030;5.350;2023-04-03T22:41:05;4.10;89.20
63966;DHT22;50151;52.030;5.350;2023-04-03T22:43:34;4.00;89.60
63966;DHT22;50151;52.030;5.350;2023-04-03T22:46:03;3.80;88.80
63966;DHT22;50151;52.030;5.350;2023-04-03T22:48:30;3.90;89.90
63966;DHT22;50151;52.030;5.350;2023-04-03T22:50:57;3.90;89.40
63966;DHT22;50151;52.030;5.350;2023-04-03T22:53:27;4.00;89.30
63966;DHT22;50151;52.030;5.350;2023-04-03T22:56:02;3.90;89.80
63966;DHT22;50151;52.030;5.350;2023-04-03T22:58:30;3.90;90.00
63966;DHT22;50151;52.030;5.350;2023-04-03T23:01:05;3.90;90.20
63966;DHT22;50151;52.030;5.350;2023-04-03T23:03:33;3.70;90.40
63966;DHT22;50151;52.030;5.350;2023-04-03T23:06:01;3.80;90.70
63966;DHT22;50151;52.030;5.350;2023-04-03T23:08:30;3.70;90.90
63966;DHT22;50151;52.030;5.350;2023-04-03T23:10:58;3.70;91.10
63966;DHT22;50151;52.030;5.350;2023-04-03T23:13:25;3.70;90.70
63966;DHT22;50151;52.030;5.350;2023-04-03T23:15:57;3.70;90.80
63966;DHT22;50151;52.030;5.350;2023-04-03T23:18:25;3.70;90.80
63966;DHT22;50151;52.030;5.350;2023-04-03T23:20:52;3.80;90.20
63966;DHT22;50151;52.030;5.350;2023-04-03T23:23:21;3.80;87.50
63966;DHT22;50151;52.030;5.350;2023-04-03T23:25:55;3.70;85.80
63966;DHT22;50151;52.030;5.350;2023-04-03T23:28:22;3.70;86.90
63966;DHT22;50151;52.030;5.350;2023-04-03T23:30:55;3.80;85.10
63966;DHT22;50151;52.030;5.350;2023-04-03T23:33:22;3.70;84.60
63966;DHT22;50151;52.030;5.350;2023-04-03T23:35:49;3.80;85.30
63966;DHT22;50151;52.030;5.350;2023-04-03T23:38:17;3.80;84.80
63966;DHT22;50151;52.030;5.350;2023-04-03T23:40:44;3.70;85.20
63966;DHT22;50151;52.030;5.350;2023-04-03T23:43:11;3.70;84.90
63966;DHT22;50151;52.030;5.350;2023-04-03T23:45:38;3.80;84.80
63966;DHT22;50151;52.030;5.350;2023-04-03T23:48:05;3.80;84.50
63966;DHT22;50151;52.030;5.350;2023-04-03T23:50:32;3.80;85.10
63966;DHT22;50151;52.030;5.350;2023-04-03T23:52:58;3.80;84.20
63966;DHT22;50151;52.030;5.350;2023-04-03T23:55:26;3.80;84.10
63966;DHT22;50151;52.030;5.350;2023-04-03T23:57:52;3.70;85.10
